sensor_id;sensor_type;location;lat;lon;timestamp;P1;durP1;ratioP1;P2;durP2;ratioP2
5813;SDS011;2933;52.302;8.134;2022-09-24T00:02:11;8.53;;;5.87;;
5813;SDS011;2933;52.302;8.134;2022-09-24T00:07:13;7.80;;;5.27;;
5813;SDS011;2933;52.302;8.134;2022-09-24T00:12:16;8.90;;;5.20;;
5813;SDS011;2933;52.302;8.134;2022-09-24T00:17:17;6.07;;;5.47;;
5813;SDS011;2933;52.302;8.134;2022-09-24T00:22:19;5.77;;;5.10;;
5813;SDS011;2933;52.302;8.134;2022-09-24T00:27:22;6.23;;;5.60;;
5813;SDS011;2933;52.302;8.134;2022-09-24T00:32:23;7.57;;;5.40;;
5813;SDS011;2933;52.302;8.134;2022-09-24T00:37:26;8.87;;;6.70;;
5813;SDS011;2933;52.302;8.134;2022-09-24T00:42:29;8.67;;;5.40;;
5813;SDS011;2933;52.302;8.134;2022-09-24T00:47:32;8.10;;;6.40;;
5813;SDS011;2933;52.302;8.134;2022-09-24T00:52:39;6.90;;;6.20;;
5813;SDS011;2933;52.302;8.134;2022-09-24T00:57:44;6.87;;;6.03;;
5813;SDS011;2933;52.302;8.134;2022-09-24T01:02:49;9.20;;;7.13;;
5813;SDS011;2933;52.302;8.134;2022-09-24T01:07:56;8.63;;;6.60;;
5813;SDS011;2933;52.302;8.134;2022-09-24T01:13:00;8.17;;;7.33;;
5813;SDS011;2933;52.302;8.134;2022-09-24T01:18:11;8.77;;;7.30;;
5813;SDS011;2933;52.302;8.134;2022-09-24T01:23:23;8.10;;;7.27;;
5813;SDS011;2933;52.302;8.134;2022-09-24T01:28:45;7.43;;;6.70;;
5813;SDS011;2933;52.302;8.134;2022-09-24T01:34:06;13.20;;;6.93;;
5813;SDS011;2933;52.302;8.134;2022-09-24T01:39:11;8.47;;;7.00;;
5813;SDS011;2933;52.302;8.134;2022-09-24T01:44:14;9.33;;;7.30;;
5813;SDS011;2933;52.302;8.134;2022-09-24T01:49:18;9.00;;;7.97;;
5813;SDS011;2933;52.302;8.134;2022-09-24T01:54:21;9.17;;;7.90;;
5813;SDS011;2933;52.302;8.134;2022-09-24T01:59:27;10.30;;;7.20;;
5813;SDS011;2933;52.302;8.134;2022-09-24T02:04:37;10.10;;;7.50;;
5813;SDS011;2933;52.302;8.134;2022-09-24T02:09:42;7.43;;;6.50;;
5813;SDS011;2933;52.302;8.134;2022-09-24T02:14:44;8.90;;;7.60;;
5813;SDS011;2933;52.302;8.134;2022-09-24T02:19:53;8.37;;;7.37;;
5813;SDS011;2933;52.302;8.134;2022-09-24T02:24:59;11.27;;;7.97;;
5813;SDS011;2933;52.302;8.134;2022-09-24T02:30:04;10.93;;;7.53;;
5813;SDS011;2933;52.302;8.134;2022-09-24T02:35:10;8.10;;;7.30;;
5813;SDS011;2933;52.302;8.134;2022-09-24T02:40:13;9.87;;;7.87;;
5813;SDS011;2933;52.302;8.134;2022-09-24T02:45:15;11.50;;;7.60;;
5813;SDS011;2933;52.302;8.134;2022-09-24T02:50:18;10.43;;;8.33;;
5813;SDS011;2933;52.302;8.134;2022-09-24T02:55:20;8.93;;;7.87;;
5813;SDS011;2933;52.302;8.134;2022-09-24T03:00:21;12.77;;;10.10;;
5813;SDS011;2933;52.302;8.134;2022-09-24T03:05:24;17.77;;;10.13;;
5813;SDS011;2933;52.302;8.134;2022-09-24T03:10:26;11.00;;;9.63;;
5813;SDS011;2933;52.302;8.134;2022-09-24T03:15:27;11.20;;;9.17;;
5813;SDS011;2933;52.302;8.134;2022-09-24T03:20:30;12.90;;;9.40;;
5813;SDS011;2933;52.302;8.134;2022-09-24T03:25:32;14.10;;;10.60;;
5813;SDS011;2933;52.302;8.134;2022-09-24T03:30:34;12.87;;;9.37;;
5813;SDS011;2933;52.302;8.134;2022-09-24T03:35:58;11.40;;;9.77;;
5813;SDS011;2933;52.302;8.134;2022-09-24T03:41:00;12.10;;;9.40;;
5813;SDS011;2933;52.302;8.134;2022-09-24T03:46:03;15.90;;;11.07;;
5813;SDS011;2933;52.302;8.134;2022-09-24T03:51:08;13.07;;;10.60;;
5813;SDS011;2933;52.302;8.134;2022-09-24T03:56:11;15.97;;;11.80;;
5813;SDS011;2933;52.302;8.134;2022-09-24T04:01:13;17.10;;;12.80;;
5813;SDS011;2933;52.302;8.134;2022-09-24T04:06:21;16.17;;;11.13;;
5813;SDS011;2933;52.302;8.134;2022-09-24T04:11:25;20.63;;;14.37;;
5813;SDS011;2933;52.302;8.134;2022-09-24T04:16:26;22.47;;;15.90;;
5813;SDS011;2933;52.302;8.134;2022-09-24T04:21:29;24.77;;;16.57;;
5813;SDS011;2933;52.302;8.134;2022-09-24T04:26:31;25.23;;;17.60;;
5813;SDS011;2933;52.302;8.134;2022-09-24T04:31:32;34.93;;;17.27;;
5813;SDS011;2933;52.302;8.134;2022-09-24T04:36:35;26.80;;;17.10;;
5813;SDS011;2933;52.302;8.134;2022-09-24T04:41:37;28.40;;;17.67;;
5813;SDS011;2933;52.302;8.134;2022-09-24T04:46:39;30.40;;;17.43;;
5813;SDS011;2933;52.302;8.134;2022-09-24T04:51:42;31.07;;;18.37;;
5813;SDS011;2933;52.302;8.134;2022-09-24T04:56:43;29.67;;;20.70;;
5813;SDS011;2933;52.302;8.134;2022-09-24T05:01:45;29.43;;;18.83;;
5813;SDS011;2933;52.302;8.134;2022-09-24T05:06:48;29.13;;;18.33;;
5813;SDS011;2933;52.302;8.134;2022-09-24T05:11:49;27.70;;;18.30;;
5813;SDS011;2933;52.302;8.134;2022-09-24T05:16:51;31.30;;;18.30;;
5813;SDS011;2933;52.302;8.134;2022-09-24T05:21:54;31.10;;;19.37;;
5813;SDS011;2933;52.302;8.134;2022-09-24T05:26:55;32.83;;;18.57;;
5813;SDS011;2933;52.302;8.134;2022-09-24T05:32:09;35.20;;;19.00;;
5813;SDS011;2933;52.302;8.134;2022-09-24T05:37:14;28.83;;;19.20;;
5813;SDS011;2933;52.302;8.134;2022-09-24T05:42:17;32.90;;;21.00;;
5813;SDS011;2933;52.302;8.134;2022-09-24T05:47:18;29.33;;;19.37;;
5813;SDS011;2933;52.302;8.134;2022-09-24T05:52:21;31.67;;;19.83;;
5813;SDS011;2933;52.302;8.134;2022-09-24T05:57:23;34.33;;;19.13;;
5813;SDS011;2933;52.302;8.134;2022-09-24T06:02:24;32.87;;;20.47;;
5813;SDS011;2933;52.302;8.134;2022-09-24T06:07:27;34.83;;;22.03;;
5813;SDS011;2933;52.302;8.134;2022-09-24T06:12:29;37.47;;;20.00;;
5813;SDS011;2933;52.302;8.134;2022-09-24T06:17:33;31.03;;;18.53;;
5813;SDS011;2933;52.302;8.134;2022-09-24T06:22:36;29.00;;;19.90;;
5813;SDS011;2933;52.302;8.134;2022-09-24T06:27:38;37.97;;;22.53;;
5813;SDS011;2933;52.302;8.134;2022-09-24T06:32:40;28.70;;;17.50;;
5813;SDS011;2933;52.302;8.134;2022-09-24T06:37:43;32.70;;;18.03;;
5813;SDS011;2933;52.302;8.134;2022-09-24T06:42:44;33.33;;;18.77;;
5813;SDS011;2933;52.302;8.134;2022-09-24T06:47:51;31.17;;;19.23;;
5813;SDS011;2933;52.302;8.134;2022-09-24T06:52:55;33.53;;;19.00;;
5813;SDS011;2933;52.302;8.134;2022-09-24T06:58:00;31.90;;;19.30;;
5813;SDS011;2933;52.302;8.134;2022-09-24T07:03:04;28.17;;;17.97;;
5813;SDS011;2933;52.302;8.134;2022-09-24T07:08:07;27.13;;;17.77;;
5813;SDS011;2933;52.302;8.134;2022-09-24T07:13:10;30.20;;;18.23;;
5813;SDS011;2933;52.302;8.134;2022-09-24T07:18:12;31.60;;;18.13;;
5813;SDS011;2933;52.302;8.134;2022-09-24T07:23:15;31.60;;;17.40;;
5813;SDS011;2933;52.302;8.134;2022-09-24T07:28:17;31.50;;;18.90;;
5813;SDS011;2933;52.302;8.134;2022-09-24T07:33:19;28.60;;;18.27;;
5813;SDS011;2933;52.302;8.134;2022-09-24T07:38:22;27.60;;;17.57;;
5813;SDS011;2933;52.302;8.134;2022-09-24T07:43:24;28.73;;;17.23;;
5813;SDS011;2933;52.302;8.134;2022-09-24T07:48:25;29.20;;;18.13;;
5813;SDS011;2933;52.302;8.134;2022-09-24T07:53:28;29.57;;;17.90;;
5813;SDS011;2933;52.302;8.134;2022-09-24T07:58:30;31.77;;;18.60;;
5813;SDS011;2933;52.302;8.134;2022-09-24T08:03:32;30.57;;;17.43;;
5813;SDS011;2933;52.302;8.134;2022-09-24T08:08:35;27.50;;;16.87;;
5813;SDS011;2933;52.302;8.134;2022-09-24T08:13:38;31.00;;;16.67;;
5813;SDS011;2933;52.302;8.134;2022-09-24T08:18:41;25.30;;;16.30;;
5813;SDS011;2933;52.302;8.134;2022-09-24T08:23:45;27.87;;;16.27;;
5813;SDS011;2933;52.302;8.134;2022-09-24T08:28:47;22.73;;;16.50;;
5813;SDS011;2933;52.302;8.134;2022-09-24T08:33:50;21.87;;;15.40;;
5813;SDS011;2933;52.302;8.134;2022-09-24T08:38:53;22.87;;;15.87;;
5813;SDS011;2933;52.302;8.134;2022-09-24T08:43:56;21.60;;;15.13;;
5813;SDS011;2933;52.302;8.134;2022-09-24T08:49:02;19.03;;;13.70;;
5813;SDS011;2933;52.302;8.134;2022-09-24T08:54:08;19.90;;;13.17;;
5813;SDS011;2933;52.302;8.134;2022-09-24T08:59:23;19.53;;;12.93;;
5813;SDS011;2933;52.302;8.134;2022-09-24T09:04:30;24.20;;;13.47;;
5813;SDS011;2933;52.302;8.134;2022-09-24T09:09:45;24.80;;;13.60;;
5813;SDS011;2933;52.302;8.134;2022-09-24T09:14:51;18.20;;;13.70;;
5813;SDS011;2933;52.302;8.134;2022-09-24T09:19:59;23.47;;;14.00;;
5813;SDS011;2933;52.302;8.134;2022-09-24T09:25:12;22.70;;;14.07;;
5813;SDS011;2933;52.302;8.134;2022-09-24T09:30:18;23.07;;;13.80;;
5813;SDS011;2933;52.302;8.134;2022-09-24T09:35:22;22.53;;;14.77;;
5813;SDS011;2933;52.302;8.134;2022-09-24T09:40:31;21.90;;;13.33;;
5813;SDS011;2933;52.302;8.134;2022-09-24T09:45:41;26.60;;;15.03;;
5813;SDS011;2933;52.302;8.134;2022-09-24T09:50:52;27.17;;;15.03;;
5813;SDS011;2933;52.302;8.134;2022-09-24T09:56:04;22.30;;;14.07;;
5813;SDS011;2933;52.302;8.134;2022-09-24T10:01:08;27.67;;;16.20;;
5813;SDS011;2933;52.302;8.134;2022-09-24T10:06:12;26.37;;;15.93;;
5813;SDS011;2933;52.302;8.134;2022-09-24T10:11:23;28.87;;;15.03;;
5813;SDS011;2933;52.302;8.134;2022-09-24T10:16:25;23.77;;;15.23;;
5813;SDS011;2933;52.302;8.134;2022-09-24T10:21:29;28.17;;;15.87;;
5813;SDS011;2933;52.302;8.134;2022-09-24T10:26:35;23.63;;;14.93;;
5813;SDS011;2933;52.302;8.134;2022-09-24T10:31:38;25.93;;;15.57;;
5813;SDS011;2933;52.302;8.134;2022-09-24T10:36:48;23.00;;;14.60;;
5813;SDS011;2933;52.302;8.134;2022-09-24T10:41:52;26.33;;;15.30;;
5813;SDS011;2933;52.302;8.134;2022-09-24T10:46:59;25.30;;;14.50;;
5813;SDS011;2933;52.302;8.134;2022-09-24T10:52:13;21.87;;;13.63;;
5813;SDS011;2933;52.302;8.134;2022-09-24T10:57:29;22.37;;;13.87;;
5813;SDS011;2933;52.302;8.134;2022-09-24T11:02:47;23.17;;;13.67;;
5813;SDS011;2933;52.302;8.134;2022-09-24T11:08:14;22.30;;;13.27;;
5813;SDS011;2933;52.302;8.134;2022-09-24T11:13:28;22.93;;;13.53;;
5813;SDS011;2933;52.302;8.134;2022-09-24T11:18:40;18.33;;;12.47;;
5813;SDS011;2933;52.302;8.134;2022-09-24T11:23:55;18.40;;;12.00;;
5813;SDS011;2933;52.302;8.134;2022-09-24T11:29:16;18.53;;;11.67;;
5813;SDS011;2933;52.302;8.134;2022-09-24T11:34:32;16.50;;;10.83;;
5813;SDS011;2933;52.302;8.134;2022-09-24T11:39:48;19.40;;;12.17;;
5813;SDS011;2933;52.302;8.134;2022-09-24T11:45:09;15.33;;;10.43;;
5813;SDS011;2933;52.302;8.134;2022-09-24T11:50:22;17.30;;;10.20;;
5813;SDS011;2933;52.302;8.134;2022-09-24T11:55:35;19.00;;;10.07;;
5813;SDS011;2933;52.302;8.134;2022-09-24T12:00:45;14.47;;;10.10;;
5813;SDS011;2933;52.302;8.134;2022-09-24T12:05:52;16.00;;;9.50;;
5813;SDS011;2933;52.302;8.134;2022-09-24T12:10:59;15.53;;;9.73;;
5813;SDS011;2933;52.302;8.134;2022-09-24T12:16:07;22.30;;;10.43;;
5813;SDS011;2933;52.302;8.134;2022-09-24T12:21:14;15.53;;;10.60;;
5813;SDS011;2933;52.302;8.134;2022-09-24T12:26:18;18.00;;;11.57;;
5813;SDS011;2933;52.302;8.134;2022-09-24T12:31:25;20.57;;;12.80;;
5813;SDS011;2933;52.302;8.134;2022-09-24T12:36:54;21.97;;;12.90;;
5813;SDS011;2933;52.302;8.134;2022-09-24T12:42:00;14.37;;;9.43;;
5813;SDS011;2933;52.302;8.134;2022-09-24T12:47:10;15.40;;;10.50;;
5813;SDS011;2933;52.302;8.134;2022-09-24T12:52:21;15.20;;;11.10;;
5813;SDS011;2933;52.302;8.134;2022-09-24T12:57:25;15.43;;;10.20;;
5813;SDS011;2933;52.302;8.134;2022-09-24T13:02:43;14.20;;;8.47;;
5813;SDS011;2933;52.302;8.134;2022-09-24T13:07:57;14.97;;;9.07;;
5813;SDS011;2933;52.302;8.134;2022-09-24T13:13:00;10.03;;;7.80;;
5813;SDS011;2933;52.302;8.134;2022-09-24T13:18:12;9.93;;;7.17;;
5813;SDS011;2933;52.302;8.134;2022-09-24T13:23:30;8.93;;;7.17;;
5813;SDS011;2933;52.302;8.134;2022-09-24T13:28:49;9.83;;;6.90;;
5813;SDS011;2933;52.302;8.134;2022-09-24T13:33:56;12.43;;;7.57;;
5813;SDS011;2933;52.302;8.134;2022-09-24T13:39:02;17.43;;;7.87;;
5813;SDS011;2933;52.302;8.134;2022-09-24T13:44:10;10.63;;;7.40;;
5813;SDS011;2933;52.302;8.134;2022-09-24T13:49:18;10.90;;;7.50;;
5813;SDS011;2933;52.302;8.134;2022-09-24T13:54:23;11.67;;;8.30;;
5813;SDS011;2933;52.302;8.134;2022-09-24T13:59:30;12.57;;;8.20;;
5813;SDS011;2933;52.302;8.134;2022-09-24T14:04:33;9.00;;;6.67;;
5813;SDS011;2933;52.302;8.134;2022-09-24T14:09:35;14.20;;;7.23;;
5813;SDS011;2933;52.302;8.134;2022-09-24T14:14:41;8.07;;;5.70;;
5813;SDS011;2933;52.302;8.134;2022-09-24T14:19:47;6.23;;;5.63;;
5813;SDS011;2933;52.302;8.134;2022-09-24T14:24:55;5.57;;;4.40;;
5813;SDS011;2933;52.302;8.134;2022-09-24T14:30:01;3.80;;;3.40;;
5813;SDS011;2933;52.302;8.134;2022-09-24T14:35:07;3.93;;;3.33;;
5813;SDS011;2933;52.302;8.134;2022-09-24T14:40:18;3.57;;;3.27;;
5813;SDS011;2933;52.302;8.134;2022-09-24T14:45:23;3.00;;;2.80;;
5813;SDS011;2933;52.302;8.134;2022-09-24T14:50:32;3.00;;;2.80;;
5813;SDS011;2933;52.302;8.134;2022-09-24T14:55:38;3.60;;;3.30;;
5813;SDS011;2933;52.302;8.134;2022-09-24T15:00:45;3.93;;;3.63;;
5813;SDS011;2933;52.302;8.134;2022-09-24T15:05:51;3.10;;;2.90;;
5813;SDS011;2933;52.302;8.134;2022-09-24T15:10:52;4.80;;;4.00;;
5813;SDS011;2933;52.302;8.134;2022-09-24T15:16:03;3.73;;;3.27;;
5813;SDS011;2933;52.302;8.134;2022-09-24T15:21:07;4.50;;;3.63;;
5813;SDS011;2933;52.302;8.134;2022-09-24T15:26:11;3.77;;;3.47;;
5813;SDS011;2933;52.302;8.134;2022-09-24T15:31:13;4.00;;;3.70;;
5813;SDS011;2933;52.302;8.134;2022-09-24T15:36:16;4.90;;;3.93;;
5813;SDS011;2933;52.302;8.134;2022-09-24T15:41:20;4.80;;;4.40;;
5813;SDS011;2933;52.302;8.134;2022-09-24T15:46:21;4.10;;;3.80;;
5813;SDS011;2933;52.302;8.134;2022-09-24T15:51:25;6.63;;;4.40;;
5813;SDS011;2933;52.302;8.134;2022-09-24T15:56:26;3.93;;;3.50;;
5813;SDS011;2933;52.302;8.134;2022-09-24T16:01:28;4.97;;;4.20;;
5813;SDS011;2933;52.302;8.134;2022-09-24T16:06:31;4.83;;;4.43;;
5813;SDS011;2933;52.302;8.134;2022-09-24T16:11:32;6.40;;;4.20;;
5813;SDS011;2933;52.302;8.134;2022-09-24T16:16:36;4.77;;;4.17;;
5813;SDS011;2933;52.302;8.134;2022-09-24T16:21:39;6.30;;;4.80;;
5813;SDS011;2933;52.302;8.134;2022-09-24T16:26:41;4.60;;;4.20;;
5813;SDS011;2933;52.302;8.134;2022-09-24T16:31:43;4.47;;;3.63;;
5813;SDS011;2933;52.302;8.134;2022-09-24T16:36:45;4.60;;;4.07;;
5813;SDS011;2933;52.302;8.134;2022-09-24T16:41:47;7.07;;;4.10;;
5813;SDS011;2933;52.302;8.134;2022-09-24T16:46:49;6.30;;;3.93;;
5813;SDS011;2933;52.302;8.134;2022-09-24T16:51:52;4.37;;;4.00;;
5813;SDS011;2933;52.302;8.134;2022-09-24T16:56:54;6.17;;;4.80;;
5813;SDS011;2933;52.302;8.134;2022-09-24T17:01:57;4.87;;;4.47;;
5813;SDS011;2933;52.302;8.134;2022-09-24T17:07:00;6.10;;;4.90;;
5813;SDS011;2933;52.302;8.134;2022-09-24T17:12:02;7.30;;;4.87;;
5813;SDS011;2933;52.302;8.134;2022-09-24T17:17:04;6.03;;;5.43;;
5813;SDS011;2933;52.302;8.134;2022-09-24T17:22:07;7.80;;;5.13;;
5813;SDS011;2933;52.302;8.134;2022-09-24T17:27:08;9.00;;;6.30;;
5813;SDS011;2933;52.302;8.134;2022-09-24T17:32:10;10.63;;;6.80;;
5813;SDS011;2933;52.302;8.134;2022-09-24T17:37:13;6.50;;;5.80;;
5813;SDS011;2933;52.302;8.134;2022-09-24T17:42:15;8.33;;;7.37;;
5813;SDS011;2933;52.302;8.134;2022-09-24T17:47:16;9.20;;;7.67;;
5813;SDS011;2933;52.302;8.134;2022-09-24T17:52:19;8.37;;;7.57;;
5813;SDS011;2933;52.302;8.134;2022-09-24T17:57:21;12.43;;;9.43;;
5813;SDS011;2933;52.302;8.134;2022-09-24T18:02:24;14.85;;;11.80;;
5813;SDS011;2933;52.302;8.134;2022-09-24T18:07:27;11.03;;;8.83;;
5813;SDS011;2933;52.302;8.134;2022-09-24T18:12:29;11.83;;;9.20;;
5813;SDS011;2933;52.302;8.134;2022-09-24T18:17:31;11.93;;;8.83;;
5813;SDS011;2933;52.302;8.134;2022-09-24T18:22:34;16.40;;;9.30;;
5813;SDS011;2933;52.302;8.134;2022-09-24T18:27:35;20.40;;;9.80;;
5813;SDS011;2933;52.302;8.134;2022-09-24T18:32:37;14.80;;;9.80;;
5813;SDS011;2933;52.302;8.134;2022-09-24T18:37:40;18.33;;;10.00;;
5813;SDS011;2933;52.302;8.134;2022-09-24T18:42:42;15.00;;;11.27;;
5813;SDS011;2933;52.302;8.134;2022-09-24T18:47:44;13.57;;;10.30;;
5813;SDS011;2933;52.302;8.134;2022-09-24T18:52:47;17.30;;;11.00;;
5813;SDS011;2933;52.302;8.134;2022-09-24T18:57:48;14.33;;;11.23;;
5813;SDS011;2933;52.302;8.134;2022-09-24T19:02:50;18.73;;;11.83;;
5813;SDS011;2933;52.302;8.134;2022-09-24T19:07:53;17.20;;;12.03;;
5813;SDS011;2933;52.302;8.134;2022-09-24T19:12:54;14.97;;;11.10;;
5813;SDS011;2933;52.302;8.134;2022-09-24T19:17:56;19.00;;;12.20;;
5813;SDS011;2933;52.302;8.134;2022-09-24T19:22:59;18.10;;;12.67;;
5813;SDS011;2933;52.302;8.134;2022-09-24T19:28:01;18.73;;;12.90;;
5813;SDS011;2933;52.302;8.134;2022-09-24T19:33:03;25.87;;;14.80;;
5813;SDS011;2933;52.302;8.134;2022-09-24T19:38:08;21.00;;;13.70;;
5813;SDS011;2933;52.302;8.134;2022-09-24T19:43:10;21.77;;;14.40;;
5813;SDS011;2933;52.302;8.134;2022-09-24T19:48:12;22.53;;;14.33;;
5813;SDS011;2933;52.302;8.134;2022-09-24T19:53:15;21.27;;;13.60;;
5813;SDS011;2933;52.302;8.134;2022-09-24T19:58:16;26.93;;;15.97;;
5813;SDS011;2933;52.302;8.134;2022-09-24T20:03:18;26.23;;;16.90;;
5813;SDS011;2933;52.302;8.134;2022-09-24T20:08:21;31.50;;;15.87;;
5813;SDS011;2933;52.302;8.134;2022-09-24T20:13:23;28.90;;;16.67;;
5813;SDS011;2933;52.302;8.134;2022-09-24T20:18:25;30.20;;;17.93;;
5813;SDS011;2933;52.302;8.134;2022-09-24T20:23:28;34.20;;;17.90;;
5813;SDS011;2933;52.302;8.134;2022-09-24T20:28:31;27.80;;;17.03;;
5813;SDS011;2933;52.302;8.134;2022-09-24T20:33:33;30.93;;;17.77;;
5813;SDS011;2933;52.302;8.134;2022-09-24T20:38:36;30.03;;;17.63;;
5813;SDS011;2933;52.302;8.134;2022-09-24T20:43:37;32.33;;;18.27;;
5813;SDS011;2933;52.302;8.134;2022-09-24T20:48:39;35.53;;;17.50;;
5813;SDS011;2933;52.302;8.134;2022-09-24T20:53:42;33.43;;;18.23;;
5813;SDS011;2933;52.302;8.134;2022-09-24T20:58:46;38.50;;;19.57;;
5813;SDS011;2933;52.302;8.134;2022-09-24T21:03:49;35.23;;;17.40;;
5813;SDS011;2933;52.302;8.134;2022-09-24T21:08:52;32.33;;;18.13;;
5813;SDS011;2933;52.302;8.134;2022-09-24T21:13:54;30.57;;;16.30;;
5813;SDS011;2933;52.302;8.134;2022-09-24T21:18:59;32.43;;;17.80;;
5813;SDS011;2933;52.302;8.134;2022-09-24T21:24:06;26.20;;;15.17;;
5813;SDS011;2933;52.302;8.134;2022-09-24T21:29:11;34.37;;;13.60;;
5813;SDS011;2933;52.302;8.134;2022-09-24T21:34:16;30.17;;;15.00;;
5813;SDS011;2933;52.302;8.134;2022-09-24T21:39:21;22.23;;;12.93;;
5813;SDS011;2933;52.302;8.134;2022-09-24T21:44:25;22.57;;;11.70;;
5813;SDS011;2933;52.302;8.134;2022-09-24T21:49:32;18.43;;;10.60;;
5813;SDS011;2933;52.302;8.134;2022-09-24T21:54:36;17.53;;;10.40;;
5813;SDS011;2933;52.302;8.134;2022-09-24T21:59:38;12.40;;;7.13;;
5813;SDS011;2933;52.302;8.134;2022-09-24T22:04:57;13.83;;;7.23;;
5813;SDS011;2933;52.302;8.134;2022-09-24T22:10:01;15.00;;;6.83;;
5813;SDS011;2933;52.302;8.134;2022-09-24T22:15:04;10.37;;;6.20;;
5813;SDS011;2933;52.302;8.134;2022-09-24T22:20:06;13.60;;;4.93;;
5813;SDS011;2933;52.302;8.134;2022-09-24T22:25:10;9.90;;;5.17;;
5813;SDS011;2933;52.302;8.134;2022-09-24T22:30:12;9.60;;;4.97;;
5813;SDS011;2933;52.302;8.134;2022-09-24T22:35:14;11.10;;;4.53;;
5813;SDS011;2933;52.302;8.134;2022-09-24T22:40:34;9.87;;;3.70;;
5813;SDS011;2933;52.302;8.134;2022-09-24T22:45:36;11.60;;;4.20;;
5813;SDS011;2933;52.302;8.134;2022-09-24T22:50:37;6.47;;;3.87;;
5813;SDS011;2933;52.302;8.134;2022-09-24T22:55:40;8.33;;;4.10;;
5813;SDS011;2933;52.302;8.134;2022-09-24T23:00:42;6.70;;;3.63;;
5813;SDS011;2933;52.302;8.134;2022-09-24T23:05:43;5.67;;;3.20;;
5813;SDS011;2933;52.302;8.134;2022-09-24T23:10:46;16.53;;;3.10;;
5813;SDS011;2933;52.302;8.134;2022-09-24T23:15:48;6.87;;;3.57;;
5813;SDS011;2933;52.302;8.134;2022-09-24T23:20:50;3.53;;;2.97;;
5813;SDS011;2933;52.302;8.134;2022-09-24T23:25:53;8.33;;;3.67;;
5813;SDS011;2933;52.302;8.134;2022-09-24T23:31:03;6.63;;;2.87;;
5813;SDS011;2933;52.302;8.134;2022-09-24T23:36:05;4.17;;;3.17;;
5813;SDS011;2933;52.302;8.134;2022-09-24T23:41:10;5.43;;;3.10;;
5813;SDS011;2933;52.302;8.134;2022-09-24T23:46:12;3.40;;;2.73;;
5813;SDS011;2933;52.302;8.134;2022-09-24T23:51:14;12.90;;;3.77;;
5813;SDS011;2933;52.302;8.134;2022-09-24T23:56:17;6.60;;;2.80;;
